Time;durP1;ratioP1;P1;durP2;ratioP2;P2;SDS_P1;SDS_P2;PMS_P1;PMS_P2;Temp;Humidity;BMP_temperature;BMP_pressure;BME280_temperature;BME280_humidity;BME280_pressure;Samples;Min_cycle;Max_cycle;Signal;HPM_P1;HPM_P2
2023/07/25 00:01:16;;;;;;;7.55;2.90;;;;;;;20.27;64.21;99559.09;4109162;28;20482;-72
2023/07/25 00:03:20;;;;;;;4.35;2.58;;;;;;;20.21;63.93;99545.25;4112820;28;20077;-73
2023/07/25 00:05:21;;;;;;;3.78;2.40;;;;;;;20.18;64.27;99540.09;4093896;28;20522;-72
2023/07/25 00:07:24;;;;;;;3.65;2.42;;;;;;;20.17;64.27;99534.88;4111251;28;20034;-71
2023/07/25 00:09:27;;;;;;;4.55;2.17;;;;;;;20.14;64.86;99527.09;4107885;28;20042;-71
2023/07/25 00:11:30;;;;;;;2.78;2.08;;;;;;;20.10;65.37;99521.06;4111765;28;20039;-72
2023/07/25 00:13:33;;;;;;;4.22;2.28;;;;;;;20.11;65.70;99517.50;4113026;28;20509;-72
2023/07/25 00:15:41;;;;;;;4.57;2.58;;;;;;;20.10;65.86;99514.94;4115203;28;20047;-72
2023/07/25 00:17:44;;;;;;;3.92;2.22;;;;;;;20.08;66.08;99517.63;4111402;28;20134;-72
2023/07/25 00:19:46;;;;;;;3.17;2.40;;;;;;;20.06;66.12;99506.25;4094782;28;20051;-72
2023/07/25 00:21:49;;;;;;;6.07;2.03;;;;;;;20.03;66.35;99502.00;4078972;29;20414;-72
2023/07/25 00:23:52;;;;;;;3.15;2.20;;;;;;;20.00;66.75;99509.16;4111276;28;20043;-71
2023/07/25 00:25:54;;;;;;;3.58;2.35;;;;;;;20.00;66.60;99511.78;4095855;28;20207;-72
2023/07/25 00:27:57;;;;;;;4.30;2.33;;;;;;;19.96;66.74;99508.44;4112567;28;20039;-72
2023/07/25 00:30:00;;;;;;;4.93;2.38;;;;;;;19.96;66.97;99513.72;4110835;28;20536;-72
2023/07/25 00:32:05;;;;;;;2.90;2.00;;;;;;;19.94;67.14;99504.13;4095683;28;20043;-72
2023/07/25 00:34:08;;;;;;;5.45;2.97;;;;;;;19.87;67.12;99501.75;4096139;29;20044;-72
2023/07/25 00:36:11;;;;;;;2.97;1.88;;;;;;;19.86;67.32;99502.66;4079917;29;20044;-72
2023/07/25 00:38:14;;;;;;;6.00;2.28;;;;;;;19.84;67.58;99493.94;4092247;29;20122;-72
2023/07/25 00:40:19;;;;;;;4.32;2.17;;;;;;;19.86;67.40;99492.09;4109273;28;20517;-72
2023/07/25 00:42:21;;;;;;;4.03;2.20;;;;;;;19.84;67.38;99493.94;4108419;28;20042;-73
2023/07/25 00:44:24;;;;;;;4.38;2.42;;;;;;;19.84;67.35;99498.34;4111701;28;20086;-72
2023/07/25 00:46:28;;;;;;;5.63;2.40;;;;;;;19.83;67.51;99497.50;4111169;28;20034;-72
2023/07/25 00:48:32;;;;;;;3.55;2.30;;;;;;;19.75;67.30;99499.53;4091972;29;20039;-72
2023/07/25 00:50:35;;;;;;;3.25;2.05;;;;;;;19.71;67.42;99504.09;4093540;29;20047;-72
2023/07/25 00:52:38;;;;;;;4.45;2.35;;;;;;;19.71;67.68;99490.91;4091006;28;20098;-72
2023/07/25 00:54:46;;;;;;;3.60;2.13;;;;;;;19.73;67.76;99493.47;4097326;28;20083;-72
2023/07/25 00:56:49;;;;;;;6.35;2.42;;;;;;;19.71;68.21;99488.25;4109372;28;20073;-72
2023/07/25 00:58:52;;;;;;;4.00;2.03;;;;;;;19.72;68.13;99478.56;4111670;28;20055;-72
2023/07/25 01:01:02;;;;;;;4.53;2.42;;;;;;;19.71;68.25;99479.47;4081753;29;20054;-72
2023/07/25 01:03:05;;;;;;;6.95;2.30;;;;;;;19.69;67.88;99479.53;4097717;28;20039;-72
2023/07/25 01:05:10;;;;;;;3.83;2.00;;;;;;;19.68;67.94;99477.84;4098293;28;20039;-71
2023/07/25 01:07:14;;;;;;;4.90;2.58;;;;;;;19.67;68.22;99478.75;4109269;28;20035;-72
2023/07/25 01:09:34;;;;;;;5.50;2.23;;;;;;;19.65;68.10;99483.22;4113027;28;20497;-73
2023/07/25 01:11:37;;;;;;;2.63;2.00;;;;;;;19.65;67.92;99492.91;4111389;28;20555;-73
2023/07/25 01:13:39;;;;;;;3.63;2.15;;;;;;;19.61;68.28;99486.91;4096913;29;20085;-73
2023/07/25 01:15:43;;;;;;;3.85;2.13;;;;;;;19.60;68.23;99492.25;4098195;29;20663;-73
2023/07/25 01:17:45;;;;;;;4.40;2.30;;;;;;;19.61;67.93;99483.38;4096965;29;20046;-73
2023/07/25 01:19:50;;;;;;;3.63;2.53;;;;;;;19.57;67.98;99480.03;4096607;28;20050;-73
2023/07/25 01:21:55;;;;;;;3.55;2.03;;;;;;;19.51;68.04;99477.63;4094376;29;20035;-73
2023/07/25 01:24:01;;;;;;;;;;;;;;;19.37;67.86;99475.50;4096159;29;20528;-73
2023/07/25 01:26:04;;;;;;;5.22;2.38;;;;;;;19.36;68.46;99481.69;4094503;29;19980;-73
2023/07/25 01:28:07;;;;;;;3.88;2.13;;;;;;;19.35;68.23;99478.22;4111501;28;20061;-73
2023/07/25 01:30:10;;;;;;;6.28;2.35;;;;;;;19.37;67.92;99478.16;4096386;28;20576;-72
2023/07/25 01:32:13;;;;;;;5.70;2.20;;;;;;;19.34;67.69;99475.63;4082225;29;20044;-73
2023/07/25 01:34:16;;;;;;;5.18;2.45;;;;;;;19.32;68.19;99472.22;4113637;28;20042;-72
2023/07/25 01:36:19;;;;;;;5.15;2.47;;;;;;;19.32;68.07;99469.56;4097492;28;20460;-72
2023/07/25 01:38:22;;;;;;;2.42;1.90;;;;;;;19.30;68.63;99471.38;4097271;29;20453;-73
2023/07/25 01:40:26;;;;;;;2.80;2.28;;;;;;;19.28;68.27;99470.59;4097982;29;20098;-73
2023/07/25 01:42:29;;;;;;;5.38;2.28;;;;;;;19.26;68.69;99475.94;4115950;28;20042;-72
2023/07/25 01:44:32;;;;;;;3.13;2.10;;;;;;;19.27;68.68;99472.34;4091497;28;20067;-72
2023/07/25 01:46:35;;;;;;;6.50;2.42;;;;;;;19.23;68.64;99475.16;4114147;28;20559;-71
2023/07/25 01:48:38;;;;;;;5.22;2.40;;;;;;;19.21;69.02;99469.97;4110719;28;20039;-73
2023/07/25 01:50:41;;;;;;;3.60;2.33;;;;;;;19.21;69.36;99469.97;4104001;28;20133;-72
2023/07/25 01:52:44;;;;;;;3.72;2.53;;;;;;;19.21;69.44;99475.22;4097378;29;20050;-72
2023/07/25 01:54:48;;;;;;;3.53;2.38;;;;;;;19.24;69.33;99476.91;4114756;28;20511;-72
2023/07/25 01:56:53;;;;;;;4.13;2.28;;;;;;;19.25;69.14;99478.63;4113763;28;20035;-72
2023/07/25 01:58:56;;;;;;;5.32;2.28;;;;;;;19.26;69.25;99485.59;4093953;29;20039;-72
2023/07/25 02:00:59;;;;;;;3.47;2.28;;;;;;;19.27;69.53;99482.03;4097624;28;20039;-72
2023/07/25 02:03:03;;;;;;;5.15;2.38;;;;;;;19.27;69.16;99482.03;4094243;28;20042;-72
2023/07/25 02:05:06;;;;;;;6.75;2.50;;;;;;;19.25;69.22;99478.63;4107982;28;20062;-72
2023/07/25 02:07:09;;;;;;;3.10;2.17;;;;;;;19.26;69.69;99485.59;4112665;28;20508;-71
2023/07/25 02:09:12;;;;;;;4.15;2.20;;;;;;;19.27;69.60;99488.16;4094590;28;20581;-73
2023/07/25 02:11:15;;;;;;;6.60;2.75;;;;;;;19.20;70.01;99484.03;4096069;28;20098;-72
2023/07/25 02:13:19;;;;;;;4.57;2.63;;;;;;;19.19;69.76;99491.09;4095085;29;20379;-73
2023/07/25 02:15:22;;;;;;;3.47;2.22;;;;;;;19.13;70.15;99491.31;4093696;29;20061;-73
2023/07/25 02:17:25;;;;;;;3.00;2.35;;;;;;;19.19;70.61;99490.25;4079930;29;20071;-72
2023/07/25 02:19:28;;;;;;;6.85;2.55;;;;;;;19.22;70.38;99494.56;4114628;28;20066;-72
2023/07/25 02:21:31;;;;;;;4.63;2.80;;;;;;;19.30;69.67;99489.84;4112447;28;20050;-73
2023/07/25 02:23:34;;;;;;;4.43;2.35;;;;;;;19.27;69.39;99492.59;4097187;28;20050;-72
2023/07/25 02:25:36;;;;;;;4.97;2.53;;;;;;;19.17;69.84;99486.78;4113054;28;20492;-72
2023/07/25 02:27:39;;;;;;;3.72;2.10;;;;;;;19.20;69.04;99491.94;4095976;29;20134;-73
2023/07/25 02:29:43;;;;;;;3.05;2.10;;;;;;;19.20;69.17;99499.84;4143795;23;20042;-72
2023/07/25 02:31:45;;;;;;;;;;;;;;;19.08;69.61;99495.03;4134906;28;20031;-72
2023/07/25 02:33:48;;;;;;;2.17;1.80;;;;;;;19.13;69.38;99487.84;4145411;28;19956;-71
2023/07/25 02:35:51;;;;;;;4.03;2.45;;;;;;;19.17;69.33;99477.13;4127766;28;20034;-71
2023/07/25 02:37:54;;;;;;;5.25;2.38;;;;;;;19.23;68.34;99477.81;4125285;28;20037;-72
2023/07/25 02:39:57;;;;;;;4.20;2.67;;;;;;;19.19;68.11;99475.28;4116560;28;20063;-71
2023/07/25 02:42:00;;;;;;;5.28;2.95;;;;;;;19.15;68.59;99478.94;4128834;28;20560;-72
2023/07/25 02:44:04;;;;;;;4.10;2.60;;;;;;;19.01;69.14;99475.94;4110494;28;20431;-71
2023/07/25 02:46:08;;;;;;;;;;;;;;;18.90;69.41;99476.34;4131077;28;20523;-71
2023/07/25 02:48:11;;;;;;;4.35;2.35;;;;;;;18.96;69.24;99477.91;4113665;28;20043;-71
2023/07/25 02:50:14;;;;;;;7.40;2.47;;;;;;;18.97;69.21;99466.47;4118313;28;20038;-71
2023/07/25 02:52:17;;;;;;;5.93;2.50;;;;;;;18.99;69.46;99459.34;4124840;28;20129;-71
2023/07/25 02:54:20;;;;;;;3.65;2.55;;;;;;;18.98;69.29;99465.53;4111406;28;20282;-71
2023/07/25 02:56:25;;;;;;;7.57;2.63;;;;;;;18.92;69.55;99465.75;4127013;28;20130;-71
2023/07/25 02:58:28;;;;;;;4.18;2.30;;;;;;;18.92;69.83;99461.34;4112453;28;20038;-72
2023/07/25 03:00:31;;;;;;;2.58;2.13;;;;;;;18.95;70.51;99455.13;4129931;28;20500;-71
2023/07/25 03:02:35;;;;;;;5.18;2.55;;;;;;;18.95;70.61;99449.84;4125271;28;20121;-71
2023/07/25 03:04:42;;;;;;;3.78;2.42;;;;;;;18.95;71.12;99445.47;4128669;28;20420;-72
2023/07/25 03:06:44;;;;;;;4.75;2.38;;;;;;;18.97;71.24;99442.75;4112052;28;20039;-71
2023/07/25 03:08:48;;;;;;;3.17;2.33;;;;;;;18.96;70.77;99425.22;4127332;28;20473;-71
2023/07/25 03:10:51;;;;;;;5.28;2.88;;;;;;;18.95;71.02;99424.38;4127886;28;20125;-71
2023/07/25 03:12:53;;;;;;;4.78;2.35;;;;;;;18.95;71.33;99423.50;4128479;28;20129;-71
2023/07/25 03:14:56;;;;;;;4.55;2.20;;;;;;;18.94;71.15;99429.69;4111899;28;20094;-71
2023/07/25 03:16:59;;;;;;;6.03;2.67;;;;;;;18.92;71.07;99416.56;4125175;28;20064;-71
2023/07/25 03:19:04;;;;;;;7.00;3.17;;;;;;;18.92;71.27;99408.66;4110438;28;20042;-71
2023/07/25 03:21:06;;;;;;;5.40;3.05;;;;;;;18.91;70.84;99406.09;4129063;28;20037;-71
2023/07/25 03:23:09;;;;;;;5.20;2.95;;;;;;;18.91;71.02;99396.44;4124485;28;20042;-71
2023/07/25 03:25:12;;;;;;;9.60;3.63;;;;;;;18.87;71.27;99397.47;4108633;28;20428;-71
2023/07/25 03:27:15;;;;;;;8.98;3.67;;;;;;;18.87;70.85;99396.63;4110702;28;20500;-71
2023/07/25 03:29:18;;;;;;;9.88;3.50;;;;;;;18.84;71.41;99389.66;4127678;28;20042;-71
2023/07/25 03:31:19;;;;;;;6.63;3.25;;;;;;;18.82;71.69;99389.72;4112522;28;20042;-71
2023/07/25 03:33:22;;;;;;;5.40;2.85;;;;;;;18.79;71.44;99381.03;4128047;28;20035;-71
2023/07/25 03:35:27;;;;;;;7.45;3.92;;;;;;;18.77;71.85;99383.75;4121273;28;20046;-71
2023/07/25 03:37:29;;;;;;;8.73;2.83;;;;;;;18.76;71.67;99387.31;4095812;28;20051;-70
2023/07/25 03:39:32;;;;;;;7.38;3.22;;;;;;;18.74;71.47;99389.13;4108393;28;20035;-70
2023/07/25 03:41:36;;;;;;;8.32;3.10;;;;;;;18.73;72.02;99389.19;4125449;28;20403;-71
2023/07/25 03:43:38;;;;;;;6.60;3.15;;;;;;;18.73;71.66;99387.38;4111804;28;20038;-71
2023/07/25 03:45:40;;;;;;;5.00;2.42;;;;;;;18.72;71.82;99380.44;4127994;28;20138;-70
2023/07/25 03:47:43;;;;;;;8.05;2.55;;;;;;;18.73;72.10;99376.84;4112479;28;20162;-71
2023/07/25 03:49:47;;;;;;;7.35;2.78;;;;;;;18.74;71.92;99378.59;4104457;28;20425;-71
2023/07/25 03:51:51;;;;;;;4.70;2.57;;;;;;;18.71;72.31;99380.50;4130923;28;20073;-70
2023/07/25 03:53:54;;;;;;;3.67;2.60;;;;;;;18.70;72.45;99379.59;4111071;28;20093;-70
2023/07/25 03:55:57;;;;;;;5.82;2.50;;;;;;;18.69;71.82;99372.66;4108026;28;20054;-70
2023/07/25 03:58:00;;;;;;;6.10;2.90;;;;;;;18.67;72.26;99371.81;4126286;28;20039;-70
2023/07/25 04:00:04;;;;;;;5.82;2.67;;;;;;;18.70;72.11;99384.88;4111905;28;20034;-70
2023/07/25 04:02:13;;;;;;;7.57;2.72;;;;;;;18.67;72.04;99375.34;4128235;28;20058;-69
2023/07/25 04:04:16;;;;;;;5.85;2.97;;;;;;;18.66;72.05;99376.25;4128341;28;20093;-69
2023/07/25 04:06:20;;;;;;;5.35;2.78;;;;;;;18.63;71.58;99381.63;4130360;28;20046;-69
2023/07/25 04:08:24;;;;;;;5.13;1.80;;;;;;;18.63;71.52;99376.34;4109512;28;20047;-62
2023/07/25 04:10:27;;;;;;;3.10;2.42;;;;;;;18.93;70.95;99384.06;4123545;28;20096;-62
2023/07/25 04:12:30;;;;;;;5.00;2.78;;;;;;;19.07;70.22;99386.19;4127158;28;20085;-62
2023/07/25 04:14:33;;;;;;;4.72;2.25;;;;;;;19.16;70.01;99391.09;4127304;28;20129;-63
2023/07/25 04:16:36;;;;;;;4.18;2.35;;;;;;;19.28;69.26;99389.75;4130550;28;20109;-62
2023/07/25 04:18:39;;;;;;;8.80;2.92;;;;;;;19.19;69.17;99380.44;4111969;28;20508;-62
2023/07/25 04:20:41;;;;;;;4.82;2.80;;;;;;;19.13;68.87;99378.03;4124425;28;20098;-62
2023/07/25 04:22:44;;;;;;;3.80;2.40;;;;;;;18.96;69.39;99388.38;4113583;28;20046;-62
2023/07/25 04:24:49;;;;;;;5.40;2.92;;;;;;;18.95;69.37;99394.53;4128324;28;20042;-62
2023/07/25 04:26:52;;;;;;;6.07;2.80;;;;;;;18.91;69.66;99398.19;4108057;28;20538;-62
2023/07/25 04:28:54;;;;;;;3.22;2.33;;;;;;;18.77;69.86;99410.06;4111127;28;20129;-63
2023/07/25 04:30:57;;;;;;;3.03;2.08;;;;;;;18.83;70.13;99403.72;4125232;28;20038;-62
2023/07/25 04:33:01;;;;;;;5.88;2.67;;;;;;;19.02;70.15;99411.84;4117569;28;20139;-62
2023/07/25 04:35:04;;;;;;;3.35;2.10;;;;;;;19.23;69.25;99411.94;4123300;28;20125;-63
2023/07/25 04:37:08;;;;;;;2.55;1.80;;;;;;;19.19;69.02;99408.56;4115441;28;20097;-62
2023/07/25 04:39:10;;;;;;;4.00;1.90;;;;;;;19.35;69.18;99411.47;4129510;28;20026;-62
2023/07/25 04:41:15;;;;;;;2.35;2.00;;;;;;;19.53;68.66;99423.91;4125943;28;20535;-63
2023/07/25 04:43:17;;;;;;;5.72;2.10;;;;;;;19.61;68.20;99422.75;4099034;28;20457;-62
2023/07/25 04:45:20;;;;;;;3.20;2.22;;;;;;;19.65;68.76;99425.19;4114016;28;20085;-62
2023/07/25 04:47:23;;;;;;;3.75;2.60;;;;;;;19.68;67.95;99413.69;4130576;28;20410;-62
2023/07/25 04:49:26;;;;;;;4.45;1.85;;;;;;;19.50;68.26;99421.41;4128588;28;20034;-62
2023/07/25 04:51:29;;;;;;;9.35;2.00;;;;;;;19.53;68.37;99423.91;4130748;28;20439;-62
2023/07/25 04:53:34;;;;;;;3.33;2.20;;;;;;;19.70;68.11;99422.41;4109747;28;20616;-63
2023/07/25 04:55:37;;;;;;;5.28;1.95;;;;;;;19.88;67.78;99426.94;4113833;28;20038;-63
2023/07/25 04:57:42;;;;;;;3.78;2.28;;;;;;;20.04;67.59;99426.31;4133317;28;20040;-63
2023/07/25 04:59:44;;;;;;;3.13;1.83;;;;;;;20.10;67.36;99418.16;4128234;28;20058;-63
2023/07/25 05:01:47;;;;;;;4.35;2.00;;;;;;;20.16;66.79;99425.78;4125211;28;20417;-63
2023/07/25 05:03:50;;;;;;;5.55;2.20;;;;;;;20.17;66.81;99432.81;4138019;28;20400;-63
2023/07/25 05:05:56;;;;;;;4.47;2.33;;;;;;;20.10;66.87;99436.63;4115398;28;20048;-63
2023/07/25 05:07:58;;;;;;;3.95;2.38;;;;;;;20.16;67.14;99433.72;4110986;28;20077;-63
2023/07/25 05:10:01;;;;;;;2.05;1.77;;;;;;;19.94;66.86;99438.19;4120400;28;20440;-64
2023/07/25 05:12:05;;;;;;;3.20;1.98;;;;;;;19.79;67.18;99435.25;4130803;28;20070;-63
2023/07/25 05:14:10;;;;;;;3.35;2.13;;;;;;;19.78;67.73;99437.91;4128913;28;20432;-63
2023/07/25 05:16:13;;;;;;;7.28;2.42;;;;;;;19.84;67.48;99435.94;4132453;28;20121;-63
2023/07/25 05:18:16;;;;;;;3.97;2.85;;;;;;;19.88;67.50;99436.66;4134848;28;20042;-63
2023/07/25 05:20:18;;;;;;;3.35;1.95;;;;;;;19.75;68.10;99440.66;4131940;28;20058;-63
2023/07/25 05:22:21;;;;;;;2.70;1.70;;;;;;;19.63;68.19;99437.59;4115300;28;20035;-63
2023/07/25 05:24:25;;;;;;;4.13;1.80;;;;;;;19.57;68.62;99448.41;4132272;28;20034;-63
2023/07/25 05:26:28;;;;;;;3.30;2.05;;;;;;;19.63;68.34;99444.66;4132447;28;20066;-63
2023/07/25 05:28:31;;;;;;;4.05;2.13;;;;;;;19.65;68.85;99450.72;4123130;28;20034;-64
2023/07/25 05:30:36;;;;;;;2.78;2.00;;;;;;;19.67;68.83;99454.16;4115871;28;20550;-65
2023/07/25 05:32:42;;;;;;;4.00;2.00;;;;;;;19.65;68.82;99456.00;4134105;28;20141;-63
2023/07/25 05:34:45;;;;;;;4.38;2.10;;;;;;;19.71;68.76;99453.09;4132922;28;20046;-64
2023/07/25 05:36:48;;;;;;;3.40;2.00;;;;;;;19.73;68.42;99453.91;4131656;28;20072;-64
2023/07/25 05:38:51;;;;;;;5.68;2.38;;;;;;;19.72;68.63;99462.75;4128230;28;20049;-66
2023/07/25 05:40:54;;;;;;;4.55;2.42;;;;;;;19.58;69.18;99458.03;4134759;28;20046;-67
2023/07/25 05:42:57;;;;;;;6.15;2.70;;;;;;;19.39;70.06;99455.25;4130565;28;20066;-68
2023/07/25 05:45:00;;;;;;;6.55;2.40;;;;;;;19.22;70.53;99457.66;4137022;28;20048;-67
2023/07/25 05:47:05;;;;;;;4.73;2.60;;;;;;;19.09;70.88;99455.47;4126815;28;20054;-67
2023/07/25 05:49:08;;;;;;;5.05;2.67;;;;;;;18.99;71.38;99447.03;4131901;28;20054;-67
2023/07/25 05:51:10;;;;;;;6.10;2.80;;;;;;;18.94;71.99;99451.63;4132458;28;20041;-67
2023/07/25 05:53:13;;;;;;;3.70;2.28;;;;;;;18.86;72.40;99447.53;4129208;28;20042;-67
2023/07/25 05:55:16;;;;;;;4.30;2.47;;;;;;;18.79;72.84;99442.50;4138781;28;20099;-67
2023/07/25 05:57:19;;;;;;;5.18;2.30;;;;;;;18.75;73.52;99448.78;4136775;28;20125;-66
2023/07/25 05:59:22;;;;;;;4.15;2.72;;;;;;;18.75;73.75;99443.50;4128906;28;20442;-67
2023/07/25 06:01:25;;;;;;;4.82;2.55;;;;;;;18.77;73.52;99443.44;4119899;28;20041;-67
2023/07/25 06:03:29;;;;;;;6.35;3.10;;;;;;;18.77;73.98;99441.66;4134104;28;20104;-67
2023/07/25 06:05:34;;;;;;;7.57;2.65;;;;;;;18.79;73.88;99444.25;4133748;28;20046;-67
2023/07/25 06:07:37;;;;;;;6.28;2.75;;;;;;;18.78;74.25;99447.81;4130721;28;20072;-67
2023/07/25 06:09:40;;;;;;;4.25;3.05;;;;;;;18.75;74.03;99446.13;4130593;28;20125;-67
2023/07/25 06:11:42;;;;;;;4.50;2.38;;;;;;;18.76;74.19;99439.09;4112665;28;20416;-67
2023/07/25 06:13:46;;;;;;;4.55;2.70;;;;;;;18.74;74.52;99441.78;4125374;28;20048;-67
2023/07/25 06:15:49;;;;;;;9.73;2.97;;;;;;;18.77;74.17;99433.75;4122345;28;20042;-67
2023/07/25 06:17:52;;;;;;;4.53;2.92;;;;;;;18.66;74.12;99428.03;4133427;28;20049;-67
2023/07/25 06:19:57;;;;;;;5.40;3.28;;;;;;;18.57;74.57;99428.34;4133244;28;20062;-67
2023/07/25 06:21:59;;;;;;;;;;;;;;;18.51;75.18;99420.69;4135775;28;20121;-67
2023/07/25 06:24:02;;;;;;;5.63;3.15;;;;;;;18.48;75.48;99417.22;4135831;28;19922;-67
2023/07/25 06:26:05;;;;;;;5.07;2.92;;;;;;;18.64;75.01;99414.91;4127346;28;20034;-67
2023/07/25 06:28:10;;;;;;;5.13;2.88;;;;;;;18.55;75.95;99417.88;4105194;28;20039;-67
2023/07/25 06:30:14;;;;;;;5.05;2.83;;;;;;;18.66;75.34;99412.22;4135056;28;20463;-67
2023/07/25 06:32:17;;;;;;;3.50;2.45;;;;;;;18.63;75.27;99417.59;4126972;28;20534;-67
2023/07/25 06:34:21;;;;;;;5.53;3.47;;;;;;;18.57;75.65;99417.81;4118053;28;20129;-68
2023/07/25 06:36:27;;;;;;;4.82;2.95;;;;;;;18.57;75.16;99410.78;4119582;28;20077;-67
2023/07/25 06:38:30;;;;;;;6.78;3.13;;;;;;;18.70;75.23;99403.31;4134473;28;20138;-67
2023/07/25 06:40:33;;;;;;;6.20;3.42;;;;;;;18.67;75.29;99406.94;4122720;28;20427;-67
2023/07/25 06:42:36;;;;;;;3.95;2.40;;;;;;;18.60;75.33;99417.72;4129543;28;20536;-66
2023/07/25 06:44:39;;;;;;;6.22;3.55;;;;;;;18.51;76.01;99413.63;4118639;28;20046;-66
2023/07/25 06:46:42;;;;;;;4.05;2.70;;;;;;;18.50;76.01;99414.56;4117617;28;20054;-66
2023/07/25 06:48:46;;;;;;;4.95;3.25;;;;;;;18.51;76.09;99411.00;4137199;28;20538;-66
2023/07/25 06:50:48;;;;;;;4.18;2.97;;;;;;;18.48;75.86;99403.22;4124446;28;20057;-66
2023/07/25 06:52:53;;;;;;;4.78;2.63;;;;;;;18.52;76.14;99415.38;4126482;28;20461;-67
2023/07/25 06:54:58;;;;;;;4.75;3.30;;;;;;;18.47;75.98;99402.38;4128934;28;20455;-66
2023/07/25 06:57:01;;;;;;;5.05;3.55;;;;;;;18.51;76.52;99403.09;4128798;28;20041;-66
2023/07/25 06:59:04;;;;;;;4.90;3.25;;;;;;;18.49;76.44;99404.94;4128257;28;20104;-67
2023/07/25 07:01:07;;;;;;;7.30;4.00;;;;;;;18.52;76.40;99396.09;4129296;28;20097;-66
2023/07/25 07:03:10;;;;;;;6.38;3.55;;;;;;;18.58;76.44;99393.22;4129413;28;20038;-67
2023/07/25 07:05:12;;;;;;;6.93;3.78;;;;;;;18.62;76.67;99395.69;4129289;28;20034;-67
2023/07/25 07:07:32;;;;;;;6.82;3.78;;;;;;;18.54;76.56;99391.63;4125468;28;20054;-66
2023/07/25 07:09:36;;;;;;;6.68;3.22;;;;;;;18.54;76.46;99386.34;4127435;28;20046;-67
2023/07/25 07:11:40;;;;;;;4.38;2.67;;;;;;;18.61;76.14;99393.13;4123041;28;20030;-67
2023/07/25 07:13:43;;;;;;;6.18;2.83;;;;;;;18.78;76.03;99389.88;4127933;28;20069;-67
2023/07/25 07:15:46;;;;;;;4.53;2.65;;;;;;;18.79;76.45;99386.31;4129823;28;20049;-67
2023/07/25 07:17:49;;;;;;;4.25;2.72;;;;;;;18.76;76.87;99381.16;4128733;28;20039;-67
2023/07/25 07:19:53;;;;;;;4.90;3.10;;;;;;;18.85;76.67;99378.19;4129207;28;20046;-67
2023/07/25 07:21:56;;;;;;;6.15;3.72;;;;;;;18.84;76.76;99365.94;4109844;28;20043;-67
2023/07/25 07:23:59;;;;;;;5.75;3.15;;;;;;;18.98;76.41;99371.59;4129696;28;20042;-67
2023/07/25 07:26:03;;;;;;;3.72;2.85;;;;;;;19.12;75.95;99368.41;4128602;28;20520;-67
2023/07/25 07:28:05;;;;;;;5.57;3.10;;;;;;;19.21;76.16;99361.09;4127013;28;20093;-67
2023/07/25 07:30:09;;;;;;;6.85;3.40;;;;;;;19.31;76.34;99359.81;4128682;28;20061;-67
2023/07/25 07:32:12;;;;;;;5.00;3.10;;;;;;;19.42;75.98;99351.44;4126506;28;20370;-67
2023/07/25 07:34:17;;;;;;;5.80;3.08;;;;;;;19.58;75.02;99346.41;4112469;28;20046;-67
2023/07/25 07:36:20;;;;;;;6.88;2.80;;;;;;;19.57;75.26;99350.00;4123695;28;20039;-67
2023/07/25 07:38:23;;;;;;;4.85;2.80;;;;;;;19.52;75.29;99350.16;4128897;28;20337;-67
2023/07/25 07:40:26;;;;;;;4.82;2.65;;;;;;;19.39;75.62;99346.31;4127995;28;20069;-67
2023/07/25 07:42:30;;;;;;;6.75;3.38;;;;;;;19.45;75.75;99353.97;4109193;28;20039;-67
2023/07/25 07:44:33;;;;;;;4.95;2.42;;;;;;;19.43;75.92;99350.53;4129546;28;20121;-67
2023/07/25 07:46:36;;;;;;;4.60;2.58;;;;;;;19.45;75.81;99333.75;4123657;28;20065;-68
2023/07/25 07:48:40;;;;;;;3.78;2.88;;;;;;;19.69;75.19;99336.28;4126278;28;20042;-67
2023/07/25 07:50:44;;;;;;;3.08;2.17;;;;;;;19.93;74.69;99339.72;4110650;28;20081;-67
2023/07/25 07:52:47;;;;;;;5.75;3.20;;;;;;;19.90;74.84;99339.84;4127371;28;20066;-67
2023/07/25 07:54:50;;;;;;;6.57;2.70;;;;;;;19.94;73.94;99338.78;4128868;28;20072;-67
2023/07/25 07:56:52;;;;;;;5.53;2.58;;;;;;;19.79;74.47;99337.66;4126577;28;20115;-67
2023/07/25 07:58:56;;;;;;;5.43;2.55;;;;;;;19.91;73.55;99340.72;4107743;28;21057;-67
2023/07/25 08:00:59;;;;;;;;;;;;;;;19.63;74.24;99341.84;4125968;28;20093;-67
2023/07/25 08:03:02;;;;;;;4.28;2.35;;;;;;;19.59;74.51;99345.50;4127522;28;19928;-67
2023/07/25 08:05:15;;;;;;;5.15;2.40;;;;;;;19.65;74.17;99339.97;4129416;28;20592;-67
2023/07/25 08:07:18;;;;;;;4.93;2.13;;;;;;;19.65;74.18;99345.25;4129271;28;20069;-67
2023/07/25 08:09:21;;;;;;;2.95;1.77;;;;;;;19.76;74.05;99337.75;4112392;28;20038;-67
2023/07/25 08:11:24;;;;;;;5.18;2.55;;;;;;;19.93;74.33;99329.19;4132634;28;20042;-67
2023/07/25 08:13:26;;;;;;;3.65;2.30;;;;;;;20.09;74.12;99332.00;4130710;28;20055;-67
2023/07/25 08:15:31;;;;;;;4.30;2.10;;;;;;;19.94;74.04;99330.03;4125767;28;20034;-67
2023/07/25 08:17:34;;;;;;;3.50;2.15;;;;;;;20.02;74.44;99328.78;4125937;28;20042;-67
2023/07/25 08:19:36;;;;;;;4.28;2.47;;;;;;;19.86;74.08;99325.94;4130077;28;20491;-67
2023/07/25 08:21:39;;;;;;;4.30;2.90;;;;;;;19.82;74.23;99326.97;4131311;28;20129;-66
2023/07/25 08:23:42;;;;;;;3.40;2.10;;;;;;;19.83;73.72;99323.44;4131201;28;20065;-66
2023/07/25 08:25:44;;;;;;;11.02;2.53;;;;;;;19.97;73.72;99328.09;4114099;28;20130;-67
2023/07/25 08:27:47;;;;;;;4.78;2.17;;;;;;;19.99;73.68;99338.59;4132082;28;20041;-67
2023/07/25 08:29:51;;;;;;;2.50;2.15;;;;;;;20.26;73.58;99343.63;4152537;22;20054;-70
2023/07/25 08:31:56;;;;;;;3.42;2.25;;;;;;;20.57;73.17;99340.44;4130535;28;20050;-72
2023/07/25 08:33:59;;;;;;;3.13;2.17;;;;;;;20.83;73.05;99330.53;4145546;28;20076;-73
2023/07/25 08:36:02;;;;;;;3.42;2.28;;;;;;;21.15;72.41;99334.28;4131143;28;20038;-72
2023/07/25 08:38:04;;;;;;;3.08;1.85;;;;;;;21.23;70.82;99332.16;4146452;28;20059;-72
2023/07/25 08:40:08;;;;;;;3.33;2.17;;;;;;;21.19;71.42;99337.66;4123530;28;20069;-72
2023/07/25 08:42:12;;;;;;;;;;;;;;;20.96;71.40;99339.59;4138160;28;20030;-71
2023/07/25 08:44:17;;;;;;;3.95;1.80;;;;;;;20.91;70.50;99336.31;4134903;28;19968;-72
2023/07/25 08:46:21;;;;;;;6.18;2.63;;;;;;;20.64;71.74;99331.31;4140650;28;20038;-72
2023/07/25 08:48:27;;;;;;;4.17;2.13;;;;;;;20.61;72.01;99330.63;4138088;28;20050;-72
2023/07/25 08:50:32;;;;;;;6.10;2.75;;;;;;;20.77;70.81;99320.25;4135797;28;20364;-72
2023/07/25 08:52:36;;;;;;;4.80;2.60;;;;;;;20.62;71.51;99322.63;4124769;28;20035;-71
2023/07/25 08:54:43;;;;;;;4.57;2.17;;;;;;;20.60;71.37;99316.53;4127019;28;20561;-70
2023/07/25 08:56:46;;;;;;;3.63;2.05;;;;;;;20.48;71.57;99317.97;4142933;28;20042;-70
2023/07/25 08:58:51;;;;;;;2.38;1.80;;;;;;;20.25;72.91;99339.25;4134343;28;20435;-70
2023/07/25 09:01:02;;;;;;;3.20;1.98;;;;;;;20.05;74.04;99343.63;4121469;28;20527;-70
2023/07/25 09:03:08;;;;;;;7.22;2.47;;;;;;;19.88;74.51;99353.09;4125781;28;20468;-68
2023/07/25 09:05:13;;;;;;;8.07;2.75;;;;;;;19.76;75.19;99343.03;4142358;28;20049;-78
2023/07/25 09:07:15;;;;;;;4.03;2.22;;;;;;;19.74;75.38;99338.75;4135888;28;20121;-77
2023/07/25 09:09:19;;;;;;;10.23;2.70;;;;;;;19.53;75.60;99363.28;4107515;28;20449;-72
2023/07/25 09:11:21;;;;;;;12.07;3.67;;;;;;;19.41;76.73;99366.41;4143234;28;20046;-73
2023/07/25 09:13:25;;;;;;;7.38;2.90;;;;;;;19.34;76.39;99357.88;4139690;28;20049;-74
2023/07/25 09:15:28;;;;;;;9.40;3.42;;;;;;;19.42;75.90;99360.25;4140611;28;20523;-72
2023/07/25 09:17:30;;;;;;;5.45;2.03;;;;;;;19.43;73.89;99355.81;4138317;28;20066;-69
2023/07/25 09:19:34;;;;;;;1.98;1.42;;;;;;;19.28;72.25;99367.84;4136278;28;20049;-69
2023/07/25 09:21:47;;;;;;;2.42;1.00;;;;;;;19.14;67.97;99379.78;4110747;28;20047;-69
2023/07/25 09:23:53;;;;;;;2.13;1.10;;;;;;;19.22;67.49;99368.06;4118710;28;20050;-69
2023/07/25 09:26:05;;;;;;;1.50;1.13;;;;;;;19.22;67.57;99389.16;4124059;28;20089;-69
2023/07/25 09:28:07;;;;;;;2.00;1.30;;;;;;;18.91;68.81;99391.16;4120875;28;20401;-71
2023/07/25 09:30:12;;;;;;;4.82;1.92;;;;;;;18.66;69.17;99391.16;4134038;28;20046;-68
2023/07/25 09:32:21;;;;;;;6.95;2.55;;;;;;;18.50;69.93;99406.69;4116950;28;20035;-73
2023/07/25 09:34:24;;;;;;;3.15;2.30;;;;;;;18.30;70.98;99410.84;4138602;28;20404;-71
2023/07/25 09:36:30;;;;;;;5.85;3.53;;;;;;;18.29;70.78;99413.53;4138334;28;20085;-70
2023/07/25 09:38:34;;;;;;;8.13;3.50;;;;;;;18.26;69.94;99418.91;4132541;28;20106;-70
2023/07/25 09:40:38;;;;;;;6.45;3.55;;;;;;;18.12;70.10;99414.97;4103264;28;20047;-69
2023/07/25 09:42:42;;;;;;;5.20;3.58;;;;;;;17.97;70.94;99423.34;4137114;28;20043;-70